sensor_id;sensor_type;location;lat;lon;timestamp;temperature;humidity
15777;DHT22;7989;51.198;6.676;2022-10-16T00:00:35;13.90;99.90
15777;DHT22;7989;51.198;6.676;2022-10-16T00:03:03;13.90;99.90
15777;DHT22;7989;51.198;6.676;2022-10-16T00:05:31;13.90;99.90
15777;DHT22;7989;51.198;6.676;2022-10-16T00:07:58;13.90;99.90
15777;DHT22;7989;51.198;6.676;2022-10-16T00:10:25;13.90;99.90
15777;DHT22;7989;51.198;6.676;2022-10-16T00:12:53;13.90;99.90
15777;DHT22;7989;51.198;6.676;2022-10-16T00:15:19;13.90;99.90
15777;DHT22;7989;51.198;6.676;2022-10-16T00:17:46;13.90;99.90
15777;DHT22;7989;51.198;6.676;2022-10-16T00:20:13;13.90;99.90
15777;DHT22;7989;51.198;6.676;2022-10-16T00:22:40;13.90;99.90
15777;DHT22;7989;51.198;6.676;2022-10-16T00:25:07;13.80;99.90
15777;DHT22;7989;51.198;6.676;2022-10-16T00:27:34;13.90;99.90
15777;DHT22;7989;51.198;6.676;2022-10-16T00:30:03;13.90;99.90
15777;DHT22;7989;51.198;6.676;2022-10-16T00:32:30;13.90;99.90
15777;DHT22;7989;51.198;6.676;2022-10-16T00:34:56;13.90;99.90
15777;DHT22;7989;51.198;6.676;2022-10-16T00:37:23;13.90;99.90
15777;DHT22;7989;51.198;6.676;2022-10-16T00:39:50;13.90;99.90
15777;DHT22;7989;51.198;6.676;2022-10-16T00:42:18;13.90;99.90
15777;DHT22;7989;51.198;6.676;2022-10-16T00:44:48;13.80;99.90
15777;DHT22;7989;51.198;6.676;2022-10-16T00:47:22;13.80;99.90
15777;DHT22;7989;51.198;6.676;2022-10-16T00:49:55;13.80;99.90
15777;DHT22;7989;51.198;6.676;2022-10-16T00:52:22;13.80;99.90
15777;DHT22;7989;51.198;6.676;2022-10-16T00:54:50;13.70;99.90
15777;DHT22;7989;51.198;6.676;2022-10-16T00:57:18;13.70;99.90
15777;DHT22;7989;51.198;6.676;2022-10-16T00:59:46;13.70;99.90
15777;DHT22;7989;51.198;6.676;2022-10-16T01:02:15;13.70;99.90
15777;DHT22;7989;51.198;6.676;2022-10-16T01:04:45;13.70;99.90
15777;DHT22;7989;51.198;6.676;2022-10-16T01:07:18;13.70;99.90
15777;DHT22;7989;51.198;6.676;2022-10-16T01:09:57;13.70;99.90
15777;DHT22;7989;51.198;6.676;2022-10-16T01:12:36;13.70;99.90
15777;DHT22;7989;51.198;6.676;2022-10-16T01:15:10;13.70;99.90
15777;DHT22;7989;51.198;6.676;2022-10-16T01:17:43;13.70;99.90
15777;DHT22;7989;51.198;6.676;2022-10-16T01:20:18;13.60;99.90
15777;DHT22;7989;51.198;6.676;2022-10-16T01:22:55;13.60;99.90
15777;DHT22;7989;51.198;6.676;2022-10-16T01:25:31;13.60;99.90
15777;DHT22;7989;51.198;6.676;2022-10-16T01:28:06;13.70;99.90
15777;DHT22;7989;51.198;6.676;2022-10-16T01:30:39;13.60;99.90
15777;DHT22;7989;51.198;6.676;2022-10-16T01:33:11;13.60;99.90
15777;DHT22;7989;51.198;6.676;2022-10-16T01:35:43;13.60;99.90
15777;DHT22;7989;51.198;6.676;2022-10-16T01:38:16;13.60;99.90
15777;DHT22;7989;51.198;6.676;2022-10-16T01:40:47;13.60;99.90
15777;DHT22;7989;51.198;6.676;2022-10-16T01:43:19;13.60;99.90
15777;DHT22;7989;51.198;6.676;2022-10-16T01:45:48;13.60;99.90
15777;DHT22;7989;51.198;6.676;2022-10-16T01:48:18;13.60;99.90
15777;DHT22;7989;51.198;6.676;2022-10-16T01:50:52;13.60;99.90
15777;DHT22;7989;51.198;6.676;2022-10-16T01:53:20;13.70;99.90
15777;DHT22;7989;51.198;6.676;2022-10-16T01:55:48;13.70;99.90
15777;DHT22;7989;51.198;6.676;2022-10-16T01:58:20;13.70;99.90
15777;DHT22;7989;51.198;6.676;2022-10-16T02:00:48;13.80;99.90
15777;DHT22;7989;51.198;6.676;2022-10-16T02:03:18;13.80;99.90
15777;DHT22;7989;51.198;6.676;2022-10-16T02:05:46;13.80;99.90
15777;DHT22;7989;51.198;6.676;2022-10-16T02:08:14;13.90;99.90
15777;DHT22;7989;51.198;6.676;2022-10-16T02:10:41;13.90;99.90
15777;DHT22;7989;51.198;6.676;2022-10-16T02:13:10;13.90;99.90
15777;DHT22;7989;51.198;6.676;2022-10-16T02:15:39;13.90;99.90
15777;DHT22;7989;51.198;6.676;2022-10-16T02:18:07;13.90;99.90
15777;DHT22;7989;51.198;6.676;2022-10-16T02:20:40;14.00;99.90
15777;DHT22;7989;51.198;6.676;2022-10-16T02:23:12;13.90;99.90
15777;DHT22;7989;51.198;6.676;2022-10-16T02:25:43;14.00;99.90
15777;DHT22;7989;51.198;6.676;2022-10-16T02:28:16;14.00;99.90
15777;DHT22;7989;51.198;6.676;2022-10-16T02:30:48;14.00;99.90
15777;DHT22;7989;51.198;6.676;2022-10-16T02:33:17;14.00;99.90
15777;DHT22;7989;51.198;6.676;2022-10-16T02:35:47;14.00;99.90
15777;DHT22;7989;51.198;6.676;2022-10-16T02:38:16;14.00;99.90
15777;DHT22;7989;51.198;6.676;2022-10-16T02:40:44;14.00;99.90
15777;DHT22;7989;51.198;6.676;2022-10-16T02:43:11;14.00;99.90
15777;DHT22;7989;51.198;6.676;2022-10-16T02:45:39;14.00;99.90
15777;DHT22;7989;51.198;6.676;2022-10-16T02:48:07;14.00;99.90
15777;DHT22;7989;51.198;6.676;2022-10-16T02:50:34;14.00;99.90
15777;DHT22;7989;51.198;6.676;2022-10-16T02:53:01;14.00;99.90
15777;DHT22;7989;51.198;6.676;2022-10-16T02:55:28;14.00;99.90
15777;DHT22;7989;51.198;6.676;2022-10-16T02:57:55;14.00;99.90
15777;DHT22;7989;51.198;6.676;2022-10-16T03:00:22;14.00;99.90
15777;DHT22;7989;51.198;6.676;2022-10-16T03:02:49;14.00;99.90
15777;DHT22;7989;51.198;6.676;2022-10-16T03:05:17;14.00;99.90
15777;DHT22;7989;51.198;6.676;2022-10-16T03:07:43;14.00;99.90
15777;DHT22;7989;51.198;6.676;2022-10-16T03:10:10;14.00;99.90
15777;DHT22;7989;51.198;6.676;2022-10-16T03:12:37;13.90;99.90
15777;DHT22;7989;51.198;6.676;2022-10-16T03:15:04;13.90;99.90
15777;DHT22;7989;51.198;6.676;2022-10-16T03:17:32;13.90;99.90
15777;DHT22;7989;51.198;6.676;2022-10-16T03:19:59;13.90;99.90
15777;DHT22;7989;51.198;6.676;2022-10-16T03:22:27;13.90;99.90
15777;DHT22;7989;51.198;6.676;2022-10-16T03:24:54;13.90;99.90
15777;DHT22;7989;51.198;6.676;2022-10-16T03:27:21;13.90;99.90
15777;DHT22;7989;51.198;6.676;2022-10-16T03:29:47;13.90;99.90
15777;DHT22;7989;51.198;6.676;2022-10-16T03:32:14;13.90;99.90
15777;DHT22;7989;51.198;6.676;2022-10-16T03:34:41;13.80;99.90
15777;DHT22;7989;51.198;6.676;2022-10-16T03:37:08;13.80;99.90
15777;DHT22;7989;51.198;6.676;2022-10-16T03:39:36;13.80;99.90
15777;DHT22;7989;51.198;6.676;2022-10-16T03:42:03;13.80;99.90
15777;DHT22;7989;51.198;6.676;2022-10-16T03:44:29;13.80;99.90
15777;DHT22;7989;51.198;6.676;2022-10-16T03:46:56;13.80;99.90
15777;DHT22;7989;51.198;6.676;2022-10-16T03:49:23;13.70;99.90
15777;DHT22;7989;51.198;6.676;2022-10-16T03:51:50;13.70;99.90
15777;DHT22;7989;51.198;6.676;2022-10-16T03:54:16;13.70;99.90
15777;DHT22;7989;51.198;6.676;2022-10-16T03:56:44;13.60;99.90
15777;DHT22;7989;51.198;6.676;2022-10-16T03:59:11;13.60;99.90
15777;DHT22;7989;51.198;6.676;2022-10-16T04:01:38;13.60;99.90
15777;DHT22;7989;51.198;6.676;2022-10-16T04:04:05;13.60;99.90
15777;DHT22;7989;51.198;6.676;2022-10-16T04:06:32;13.60;99.90
15777;DHT22;7989;51.198;6.676;2022-10-16T04:08:59;13.50;99.90
15777;DHT22;7989;51.198;6.676;2022-10-16T04:11:25;13.50;99.90
15777;DHT22;7989;51.198;6.676;2022-10-16T04:13:54;13.50;99.90
15777;DHT22;7989;51.198;6.676;2022-10-16T04:16:21;13.40;99.90
15777;DHT22;7989;51.198;6.676;2022-10-16T04:18:47;13.40;99.90
15777;DHT22;7989;51.198;6.676;2022-10-16T04:21:14;13.40;99.90
15777;DHT22;7989;51.198;6.676;2022-10-16T04:23:42;13.40;99.90
15777;DHT22;7989;51.198;6.676;2022-10-16T04:26:09;13.40;99.90
15777;DHT22;7989;51.198;6.676;2022-10-16T04:28:36;13.40;99.90
15777;DHT22;7989;51.198;6.676;2022-10-16T04:31:05;13.40;99.90
15777;DHT22;7989;51.198;6.676;2022-10-16T04:33:32;13.40;99.90
15777;DHT22;7989;51.198;6.676;2022-10-16T04:36:00;13.40;99.90
15777;DHT22;7989;51.198;6.676;2022-10-16T04:38:27;13.30;99.90
15777;DHT22;7989;51.198;6.676;2022-10-16T04:40:54;13.30;99.90
15777;DHT22;7989;51.198;6.676;2022-10-16T04:43:21;13.30;99.90
15777;DHT22;7989;51.198;6.676;2022-10-16T04:45:48;13.30;99.90
15777;DHT22;7989;51.198;6.676;2022-10-16T04:48:17;13.30;99.90
15777;DHT22;7989;51.198;6.676;2022-10-16T04:50:44;13.30;99.90
15777;DHT22;7989;51.198;6.676;2022-10-16T04:53:11;13.30;99.90
15777;DHT22;7989;51.198;6.676;2022-10-16T04:55:38;13.30;99.90
15777;DHT22;7989;51.198;6.676;2022-10-16T04:58:05;13.30;99.90
15777;DHT22;7989;51.198;6.676;2022-10-16T05:00:32;13.20;99.90
15777;DHT22;7989;51.198;6.676;2022-10-16T05:02:59;13.20;99.90
15777;DHT22;7989;51.198;6.676;2022-10-16T05:05:27;13.30;99.90
15777;DHT22;7989;51.198;6.676;2022-10-16T05:07:54;13.20;99.90
15777;DHT22;7989;51.198;6.676;2022-10-16T05:10:21;13.20;99.90
15777;DHT22;7989;51.198;6.676;2022-10-16T05:12:48;13.20;99.90
15777;DHT22;7989;51.198;6.676;2022-10-16T05:15:15;13.20;99.90
15777;DHT22;7989;51.198;6.676;2022-10-16T05:17:42;13.20;99.90
15777;DHT22;7989;51.198;6.676;2022-10-16T05:20:09;13.20;99.90
15777;DHT22;7989;51.198;6.676;2022-10-16T05:22:37;13.20;99.90
15777;DHT22;7989;51.198;6.676;2022-10-16T05:25:04;13.20;99.90
15777;DHT22;7989;51.198;6.676;2022-10-16T05:27:31;13.20;99.90
15777;DHT22;7989;51.198;6.676;2022-10-16T05:29:58;13.20;99.90
15777;DHT22;7989;51.198;6.676;2022-10-16T05:32:25;13.20;99.90
15777;DHT22;7989;51.198;6.676;2022-10-16T05:34:52;13.20;99.90
15777;DHT22;7989;51.198;6.676;2022-10-16T05:37:18;13.20;99.90
15777;DHT22;7989;51.198;6.676;2022-10-16T05:39:47;13.10;99.90
15777;DHT22;7989;51.198;6.676;2022-10-16T05:42:13;13.10;99.90
15777;DHT22;7989;51.198;6.676;2022-10-16T05:44:41;13.20;99.90
15777;DHT22;7989;51.198;6.676;2022-10-16T05:47:07;13.10;99.90
15777;DHT22;7989;51.198;6.676;2022-10-16T05:49:34;13.10;99.90
15777;DHT22;7989;51.198;6.676;2022-10-16T05:52:01;13.10;99.90
15777;DHT22;7989;51.198;6.676;2022-10-16T05:54:28;13.10;99.90
15777;DHT22;7989;51.198;6.676;2022-10-16T05:56:56;13.20;99.90
15777;DHT22;7989;51.198;6.676;2022-10-16T05:59:23;13.20;99.90
15777;DHT22;7989;51.198;6.676;2022-10-16T06:01:49;13.20;99.90
15777;DHT22;7989;51.198;6.676;2022-10-16T06:04:16;13.20;99.90
15777;DHT22;7989;51.198;6.676;2022-10-16T06:06:45;13.10;99.90
15777;DHT22;7989;51.198;6.676;2022-10-16T06:09:11;13.20;99.90
15777;DHT22;7989;51.198;6.676;2022-10-16T06:11:38;13.20;99.90
15777;DHT22;7989;51.198;6.676;2022-10-16T06:14:08;13.20;99.90
15777;DHT22;7989;51.198;6.676;2022-10-16T06:16:36;13.20;99.90
15777;DHT22;7989;51.198;6.676;2022-10-16T06:19:03;13.20;99.90
15777;DHT22;7989;51.198;6.676;2022-10-16T06:21:31;13.30;99.90
15777;DHT22;7989;51.198;6.676;2022-10-16T06:23:58;13.30;99.90
15777;DHT22;7989;51.198;6.676;2022-10-16T06:26:27;13.30;99.90
15777;DHT22;7989;51.198;6.676;2022-10-16T06:28:54;13.30;99.90
15777;DHT22;7989;51.198;6.676;2022-10-16T06:31:24;13.30;99.90
15777;DHT22;7989;51.198;6.676;2022-10-16T06:33:53;13.40;99.90
15777;DHT22;7989;51.198;6.676;2022-10-16T06:36:20;13.30;99.90
15777;DHT22;7989;51.198;6.676;2022-10-16T06:38:47;13.40;99.90
15777;DHT22;7989;51.198;6.676;2022-10-16T06:41:16;13.50;99.90
15777;DHT22;7989;51.198;6.676;2022-10-16T06:43:43;13.50;99.90
15777;DHT22;7989;51.198;6.676;2022-10-16T06:46:12;13.50;99.90
15777;DHT22;7989;51.198;6.676;2022-10-16T06:48:40;13.50;99.90
15777;DHT22;7989;51.198;6.676;2022-10-16T06:51:10;13.60;99.90
15777;DHT22;7989;51.198;6.676;2022-10-16T06:53:40;13.70;99.90
15777;DHT22;7989;51.198;6.676;2022-10-16T06:56:08;13.80;99.90
15777;DHT22;7989;51.198;6.676;2022-10-16T06:58:35;13.90;99.90
15777;DHT22;7989;51.198;6.676;2022-10-16T07:01:02;13.90;99.90
15777;DHT22;7989;51.198;6.676;2022-10-16T07:03:29;13.90;99.90
15777;DHT22;7989;51.198;6.676;2022-10-16T07:06:01;13.90;99.90
15777;DHT22;7989;51.198;6.676;2022-10-16T07:08:30;13.90;99.90
15777;DHT22;7989;51.198;6.676;2022-10-16T07:11:01;13.90;99.90
15777;DHT22;7989;51.198;6.676;2022-10-16T07:13:28;13.90;99.90
15777;DHT22;7989;51.198;6.676;2022-10-16T07:15:55;13.90;99.90
15777;DHT22;7989;51.198;6.676;2022-10-16T07:18:22;13.90;99.90
15777;DHT22;7989;51.198;6.676;2022-10-16T07:20:52;13.90;99.90
15777;DHT22;7989;51.198;6.676;2022-10-16T07:23:20;13.90;99.90
15777;DHT22;7989;51.198;6.676;2022-10-16T07:25:53;14.00;99.90
15777;DHT22;7989;51.198;6.676;2022-10-16T07:28:20;14.10;99.90
15777;DHT22;7989;51.198;6.676;2022-10-16T07:30:47;14.10;99.90
15777;DHT22;7989;51.198;6.676;2022-10-16T07:33:14;14.10;99.90
15777;DHT22;7989;51.198;6.676;2022-10-16T07:35:48;14.10;99.90
15777;DHT22;7989;51.198;6.676;2022-10-16T07:38:15;14.10;99.90
15777;DHT22;7989;51.198;6.676;2022-10-16T07:40:43;14.10;99.90
15777;DHT22;7989;51.198;6.676;2022-10-16T07:43:10;14.10;99.90
15777;DHT22;7989;51.198;6.676;2022-10-16T07:45:37;14.20;99.90
15777;DHT22;7989;51.198;6.676;2022-10-16T07:48:05;14.30;99.90
15777;DHT22;7989;51.198;6.676;2022-10-16T07:50:31;14.40;99.90
15777;DHT22;7989;51.198;6.676;2022-10-16T07:52:58;14.50;99.90
15777;DHT22;7989;51.198;6.676;2022-10-16T07:55:25;14.60;99.90
15777;DHT22;7989;51.198;6.676;2022-10-16T07:57:54;14.90;99.90
15777;DHT22;7989;51.198;6.676;2022-10-16T08:00:21;15.00;99.90
15777;DHT22;7989;51.198;6.676;2022-10-16T08:02:47;15.30;99.90
15777;DHT22;7989;51.198;6.676;2022-10-16T08:05:14;15.40;99.90
15777;DHT22;7989;51.198;6.676;2022-10-16T08:07:41;15.50;99.90
15777;DHT22;7989;51.198;6.676;2022-10-16T08:10:14;15.70;99.90
15777;DHT22;7989;51.198;6.676;2022-10-16T08:12:42;15.80;99.90
15777;DHT22;7989;51.198;6.676;2022-10-16T08:15:13;15.80;99.90
15777;DHT22;7989;51.198;6.676;2022-10-16T08:17:39;16.70;99.90
15777;DHT22;7989;51.198;6.676;2022-10-16T08:20:07;19.40;99.90
15777;DHT22;7989;51.198;6.676;2022-10-16T08:22:34;23.30;99.90
15777;DHT22;7989;51.198;6.676;2022-10-16T08:25:01;26.00;99.90
15777;DHT22;7989;51.198;6.676;2022-10-16T08:27:31;26.30;99.90
15777;DHT22;7989;51.198;6.676;2022-10-16T08:29:58;26.40;99.90
15777;DHT22;7989;51.198;6.676;2022-10-16T08:32:26;27.30;99.90
15777;DHT22;7989;51.198;6.676;2022-10-16T08:34:53;26.70;99.90
15777;DHT22;7989;51.198;6.676;2022-10-16T08:37:19;24.80;99.90
15777;DHT22;7989;51.198;6.676;2022-10-16T08:39:46;24.90;99.90
15777;DHT22;7989;51.198;6.676;2022-10-16T08:42:23;28.00;99.90
15777;DHT22;7989;51.198;6.676;2022-10-16T08:45:12;30.20;99.90
15777;DHT22;7989;51.198;6.676;2022-10-16T08:47:49;29.80;99.90
15777;DHT22;7989;51.198;6.676;2022-10-16T08:50:23;26.70;99.90
15777;DHT22;7989;51.198;6.676;2022-10-16T08:52:51;24.30;99.90
15777;DHT22;7989;51.198;6.676;2022-10-16T08:55:34;22.50;99.90
15777;DHT22;7989;51.198;6.676;2022-10-16T08:58:11;21.30;99.90
15777;DHT22;7989;51.198;6.676;2022-10-16T09:00:46;21.00;99.90
15777;DHT22;7989;51.198;6.676;2022-10-16T09:03:33;21.50;99.90
15777;DHT22;7989;51.198;6.676;2022-10-16T09:06:15;20.90;99.90
15777;DHT22;7989;51.198;6.676;2022-10-16T09:08:56;20.20;99.90
15777;DHT22;7989;51.198;6.676;2022-10-16T09:11:44;19.70;99.90
15777;DHT22;7989;51.198;6.676;2022-10-16T09:14:39;19.30;99.90
15777;DHT22;7989;51.198;6.676;2022-10-16T09:17:18;19.40;99.90
15777;DHT22;7989;51.198;6.676;2022-10-16T09:19:53;19.50;99.90
15777;DHT22;7989;51.198;6.676;2022-10-16T09:22:26;19.40;99.90
15777;DHT22;7989;51.198;6.676;2022-10-16T09:24:54;19.20;99.90
15777;DHT22;7989;51.198;6.676;2022-10-16T09:27:21;19.50;99.90
15777;DHT22;7989;51.198;6.676;2022-10-16T09:29:53;20.20;99.90
15777;DHT22;7989;51.198;6.676;2022-10-16T09:32:22;21.30;99.90
15777;DHT22;7989;51.198;6.676;2022-10-16T09:34:52;20.60;99.90
15777;DHT22;7989;51.198;6.676;2022-10-16T09:37:22;20.20;99.90
15777;DHT22;7989;51.198;6.676;2022-10-16T09:39:51;19.90;99.90
15777;DHT22;7989;51.198;6.676;2022-10-16T09:42:18;19.70;99.90
15777;DHT22;7989;51.198;6.676;2022-10-16T09:44:48;19.60;99.90
15777;DHT22;7989;51.198;6.676;2022-10-16T09:47:18;19.50;99.90
15777;DHT22;7989;51.198;6.676;2022-10-16T09:49:54;19.30;99.90
15777;DHT22;7989;51.198;6.676;2022-10-16T09:52:30;19.00;99.90
15777;DHT22;7989;51.198;6.676;2022-10-16T09:55:01;19.00;99.90
15777;DHT22;7989;51.198;6.676;2022-10-16T09:57:37;19.70;99.90
15777;DHT22;7989;51.198;6.676;2022-10-16T10:00:09;20.50;99.90
15777;DHT22;7989;51.198;6.676;2022-10-16T10:02:37;21.10;99.90
15777;DHT22;7989;51.198;6.676;2022-10-16T10:05:17;21.70;99.90
15777;DHT22;7989;51.198;6.676;2022-10-16T10:07:54;24.90;99.90
15777;DHT22;7989;51.198;6.676;2022-10-16T10:10:25;24.50;99.90
15777;DHT22;7989;51.198;6.676;2022-10-16T10:12:54;23.40;99.90
15777;DHT22;7989;51.198;6.676;2022-10-16T10:15:24;21.80;99.90
15777;DHT22;7989;51.198;6.676;2022-10-16T10:17:54;21.00;99.90
15777;DHT22;7989;51.198;6.676;2022-10-16T10:20:30;20.60;99.90
15777;DHT22;7989;51.198;6.676;2022-10-16T10:23:00;20.10;99.90
15777;DHT22;7989;51.198;6.676;2022-10-16T10:25:52;19.80;99.90
15777;DHT22;7989;51.198;6.676;2022-10-16T10:28:36;19.60;99.90
15777;DHT22;7989;51.198;6.676;2022-10-16T10:31:10;19.40;99.90
15777;DHT22;7989;51.198;6.676;2022-10-16T10:33:46;20.50;99.90
15777;DHT22;7989;51.198;6.676;2022-10-16T10:36:42;21.50;99.90
15777;DHT22;7989;51.198;6.676;2022-10-16T10:39:17;22.60;99.90
15777;DHT22;7989;51.198;6.676;2022-10-16T10:42:04;21.40;99.90
15777;DHT22;7989;51.198;6.676;2022-10-16T10:45:00;21.80;99.90
15777;DHT22;7989;51.198;6.676;2022-10-16T10:47:40;26.40;99.90
15777;DHT22;7989;51.198;6.676;2022-10-16T10:50:16;29.80;99.90
15777;DHT22;7989;51.198;6.676;2022-10-16T10:53:02;28.00;99.90
15777;DHT22;7989;51.198;6.676;2022-10-16T10:55:40;25.20;99.90
15777;DHT22;7989;51.198;6.676;2022-10-16T10:58:29;23.90;99.90
15777;DHT22;7989;51.198;6.676;2022-10-16T11:01:04;22.70;99.90
15777;DHT22;7989;51.198;6.676;2022-10-16T11:03:49;22.00;99.90
15777;DHT22;7989;51.198;6.676;2022-10-16T11:06:25;21.80;99.90
15777;DHT22;7989;51.198;6.676;2022-10-16T11:08:59;21.80;99.90
15777;DHT22;7989;51.198;6.676;2022-10-16T11:11:32;21.60;99.90
15777;DHT22;7989;51.198;6.676;2022-10-16T11:14:05;21.60;99.90
15777;DHT22;7989;51.198;6.676;2022-10-16T11:16:35;21.50;99.90
15777;DHT22;7989;51.198;6.676;2022-10-16T11:21:54;21.20;99.90
15777;DHT22;7989;51.198;6.676;2022-10-16T11:24:34;21.30;99.90
15777;DHT22;7989;51.198;6.676;2022-10-16T11:27:15;21.30;99.90
15777;DHT22;7989;51.198;6.676;2022-10-16T11:29:48;21.40;99.90
15777;DHT22;7989;51.198;6.676;2022-10-16T11:32:22;21.40;99.90
15777;DHT22;7989;51.198;6.676;2022-10-16T11:34:55;21.30;99.90
15777;DHT22;7989;51.198;6.676;2022-10-16T11:37:26;21.30;99.90
15777;DHT22;7989;51.198;6.676;2022-10-16T11:40:02;21.30;99.90
15777;DHT22;7989;51.198;6.676;2022-10-16T11:42:35;21.30;99.90
15777;DHT22;7989;51.198;6.676;2022-10-16T11:45:12;21.20;99.90
15777;DHT22;7989;51.198;6.676;2022-10-16T11:47:45;20.90;99.90
15777;DHT22;7989;51.198;6.676;2022-10-16T11:50:22;20.70;99.90
15777;DHT22;7989;51.198;6.676;2022-10-16T11:52:55;20.60;99.90
15777;DHT22;7989;51.198;6.676;2022-10-16T11:55:31;20.40;99.90
15777;DHT22;7989;51.198;6.676;2022-10-16T11:58:03;20.40;99.90
15777;DHT22;7989;51.198;6.676;2022-10-16T12:00:38;20.60;99.90
15777;DHT22;7989;51.198;6.676;2022-10-16T12:03:12;20.80;99.90
15777;DHT22;7989;51.198;6.676;2022-10-16T12:06:04;20.80;99.90
15777;DHT22;7989;51.198;6.676;2022-10-16T12:08:33;20.90;99.90
15777;DHT22;7989;51.198;6.676;2022-10-16T12:11:09;21.00;99.90
15777;DHT22;7989;51.198;6.676;2022-10-16T12:13:38;21.30;99.90
15777;DHT22;7989;51.198;6.676;2022-10-16T12:16:07;21.50;99.90
15777;DHT22;7989;51.198;6.676;2022-10-16T12:18:46;21.60;99.90
15777;DHT22;7989;51.198;6.676;2022-10-16T12:21:15;21.60;99.90
15777;DHT22;7989;51.198;6.676;2022-10-16T12:23:48;21.70;99.90
15777;DHT22;7989;51.198;6.676;2022-10-16T12:26:25;21.80;99.90
15777;DHT22;7989;51.198;6.676;2022-10-16T12:28:53;21.80;99.90
15777;DHT22;7989;51.198;6.676;2022-10-16T12:31:20;21.90;99.90
15777;DHT22;7989;51.198;6.676;2022-10-16T12:33:59;21.70;99.90
15777;DHT22;7989;51.198;6.676;2022-10-16T12:36:29;21.60;99.90
15777;DHT22;7989;51.198;6.676;2022-10-16T12:38:57;21.70;99.90
15777;DHT22;7989;51.198;6.676;2022-10-16T12:41:27;21.80;99.90
15777;DHT22;7989;51.198;6.676;2022-10-16T12:43:54;21.70;99.90
15777;DHT22;7989;51.198;6.676;2022-10-16T12:46:33;21.50;99.90
15777;DHT22;7989;51.198;6.676;2022-10-16T12:49:28;21.40;99.90
15777;DHT22;7989;51.198;6.676;2022-10-16T12:51:56;21.20;99.90
15777;DHT22;7989;51.198;6.676;2022-10-16T12:54:27;21.30;99.90
15777;DHT22;7989;51.198;6.676;2022-10-16T12:57:09;21.20;99.90
15777;DHT22;7989;51.198;6.676;2022-10-16T12:59:45;21.00;99.90
15777;DHT22;7989;51.198;6.676;2022-10-16T13:05:22;21.00;99.90
15777;DHT22;7989;51.198;6.676;2022-10-16T13:07:56;20.90;99.90
15777;DHT22;7989;51.198;6.676;2022-10-16T13:10:30;21.00;99.90
15777;DHT22;7989;51.198;6.676;2022-10-16T13:13:20;21.20;99.90
15777;DHT22;7989;51.198;6.676;2022-10-16T13:16:02;21.40;99.90
15777;DHT22;7989;51.198;6.676;2022-10-16T13:18:40;21.40;99.90
15777;DHT22;7989;51.198;6.676;2022-10-16T13:21:19;21.20;99.90
15777;DHT22;7989;51.198;6.676;2022-10-16T13:23:53;21.20;99.90
15777;DHT22;7989;51.198;6.676;2022-10-16T13:26:29;21.10;99.90
15777;DHT22;7989;51.198;6.676;2022-10-16T13:29:00;21.10;99.90
15777;DHT22;7989;51.198;6.676;2022-10-16T13:31:28;21.00;99.90
15777;DHT22;7989;51.198;6.676;2022-10-16T13:33:57;21.10;99.90
15777;DHT22;7989;51.198;6.676;2022-10-16T13:36:27;21.00;99.90
15777;DHT22;7989;51.198;6.676;2022-10-16T13:39:09;21.10;99.90
15777;DHT22;7989;51.198;6.676;2022-10-16T13:41:37;21.10;99.90
15777;DHT22;7989;51.198;6.676;2022-10-16T13:44:13;21.00;99.90
15777;DHT22;7989;51.198;6.676;2022-10-16T13:46:41;20.90;99.90
15777;DHT22;7989;51.198;6.676;2022-10-16T13:49:13;20.80;99.90
15777;DHT22;7989;51.198;6.676;2022-10-16T13:51:40;20.90;99.90
15777;DHT22;7989;51.198;6.676;2022-10-16T13:54:09;21.10;99.90
15777;DHT22;7989;51.198;6.676;2022-10-16T13:56:38;21.40;99.90
15777;DHT22;7989;51.198;6.676;2022-10-16T13:59:25;21.40;99.90
15777;DHT22;7989;51.198;6.676;2022-10-16T14:01:55;21.10;99.90
15777;DHT22;7989;51.198;6.676;2022-10-16T14:04:23;20.80;99.90
15777;DHT22;7989;51.198;6.676;2022-10-16T14:06:51;20.60;99.90
15777;DHT22;7989;51.198;6.676;2022-10-16T14:09:22;20.50;99.90
15777;DHT22;7989;51.198;6.676;2022-10-16T14:11:52;20.50;99.90
15777;DHT22;7989;51.198;6.676;2022-10-16T14:14:21;20.40;99.90
15777;DHT22;7989;51.198;6.676;2022-10-16T14:16:48;20.40;99.90
15777;DHT22;7989;51.198;6.676;2022-10-16T14:19:19;20.40;99.90
15777;DHT22;7989;51.198;6.676;2022-10-16T14:21:47;20.50;99.90
15777;DHT22;7989;51.198;6.676;2022-10-16T14:24:25;20.60;99.90
15777;DHT22;7989;51.198;6.676;2022-10-16T14:26:53;20.60;99.90
15777;DHT22;7989;51.198;6.676;2022-10-16T14:29:24;20.60;99.90
15777;DHT22;7989;51.198;6.676;2022-10-16T14:31:56;20.40;99.90
15777;DHT22;7989;51.198;6.676;2022-10-16T14:34:29;20.30;99.90
15777;DHT22;7989;51.198;6.676;2022-10-16T14:36:59;20.10;99.90
15777;DHT22;7989;51.198;6.676;2022-10-16T14:39:30;20.00;99.90
15777;DHT22;7989;51.198;6.676;2022-10-16T14:41:58;20.00;99.90
15777;DHT22;7989;51.198;6.676;2022-10-16T14:44:31;19.90;99.90
15777;DHT22;7989;51.198;6.676;2022-10-16T14:47:07;19.90;99.90
15777;DHT22;7989;51.198;6.676;2022-10-16T14:49:35;19.90;99.90
15777;DHT22;7989;51.198;6.676;2022-10-16T14:52:04;19.90;99.90
15777;DHT22;7989;51.198;6.676;2022-10-16T14:54:31;19.90;99.90
15777;DHT22;7989;51.198;6.676;2022-10-16T14:56:58;19.90;99.90
15777;DHT22;7989;51.198;6.676;2022-10-16T14:59:30;19.80;99.90
15777;DHT22;7989;51.198;6.676;2022-10-16T15:01:58;19.80;99.90
15777;DHT22;7989;51.198;6.676;2022-10-16T15:04:25;19.80;99.90
15777;DHT22;7989;51.198;6.676;2022-10-16T15:06:52;19.80;99.90
15777;DHT22;7989;51.198;6.676;2022-10-16T15:09:19;19.70;99.90
15777;DHT22;7989;51.198;6.676;2022-10-16T15:11:45;19.60;99.90
15777;DHT22;7989;51.198;6.676;2022-10-16T15:14:13;19.50;99.90
15777;DHT22;7989;51.198;6.676;2022-10-16T15:16:41;19.50;99.90
15777;DHT22;7989;51.198;6.676;2022-10-16T15:19:08;19.50;99.90
15777;DHT22;7989;51.198;6.676;2022-10-16T15:21:35;19.50;99.90
15777;DHT22;7989;51.198;6.676;2022-10-16T15:24:02;19.50;99.90
15777;DHT22;7989;51.198;6.676;2022-10-16T15:26:29;19.50;99.90
15777;DHT22;7989;51.198;6.676;2022-10-16T15:28:57;19.50;99.90
15777;DHT22;7989;51.198;6.676;2022-10-16T15:31:23;19.40;99.90
15777;DHT22;7989;51.198;6.676;2022-10-16T15:33:52;19.30;99.90
15777;DHT22;7989;51.198;6.676;2022-10-16T15:36:27;19.20;99.90
15777;DHT22;7989;51.198;6.676;2022-10-16T15:38:54;19.20;99.90
15777;DHT22;7989;51.198;6.676;2022-10-16T15:41:22;19.00;99.90
15777;DHT22;7989;51.198;6.676;2022-10-16T15:43:49;19.00;99.90
15777;DHT22;7989;51.198;6.676;2022-10-16T15:46:18;19.00;99.90
15777;DHT22;7989;51.198;6.676;2022-10-16T15:48:46;18.90;99.90
15777;DHT22;7989;51.198;6.676;2022-10-16T15:51:14;18.90;99.90
15777;DHT22;7989;51.198;6.676;2022-10-16T15:53:41;18.80;99.90
15777;DHT22;7989;51.198;6.676;2022-10-16T15:56:09;18.70;99.90
15777;DHT22;7989;51.198;6.676;2022-10-16T15:58:36;18.70;99.90
15777;DHT22;7989;51.198;6.676;2022-10-16T16:01:04;18.80;99.90
15777;DHT22;7989;51.198;6.676;2022-10-16T16:03:32;18.80;99.90
15777;DHT22;7989;51.198;6.676;2022-10-16T16:06:04;18.70;99.90
15777;DHT22;7989;51.198;6.676;2022-10-16T16:08:32;18.70;99.90
15777;DHT22;7989;51.198;6.676;2022-10-16T16:11:00;18.60;99.90